| time (UTC) | temp C | wind direction | speed KPH | gust KPH | rain 1hr cm | rain 24hr cm | rain mn cm | humidity % | barometer mb |
| 20260505120747 | 14 | 300 | 0.0 | 3.2 | 0.00 | 0.00 | 0.00 | 80 | 1024.8 |
| 20260505113742 | 15 | 300 | 3.2 | 4.8 | 0.00 | 0.00 | 0.00 | 82 | 1024.4 |
| 20260505110741 | 16 | 300 | 0.0 | 1.6 | 0.00 | 0.00 | 0.00 | 80 | 1024.3 |
| 20260505100739 | 17 | 88 | 1.6 | 3.2 | 0.00 | 0.00 | 0.00 | 75 | 1023.4 |
| 20260505093759 | 17 | 103 | 0.0 | 1.6 | 0.00 | 0.00 | 0.00 | 71 | 1023.3 |
| 20260505090738 | 18 | 81 | 1.6 | 6.4 | 0.00 | 0.00 | 0.00 | 66 | 1023.0 |
| 20260505083731 | 18 | 132 | 3.2 | 8.0 | 0.00 | 0.00 | 0.00 | 64 | 1022.9 |
| 20260505080732 | 18 | 147 | 3.2 | 8.0 | 0.00 | 0.00 | 0.00 | 67 | 1023.0 |
| 20260505073731 | 18 | 170 | 3.2 | 12.9 | 0.00 | 0.00 | 0.00 | 67 | 1022.8 |
| 20260505070730 | 19 | 206 | 3.2 | 12.9 | 0.00 | 0.00 | 0.00 | 64 | 1022.5 |
| 20260505063731 | 18 | 150 | 3.2 | 12.9 | 0.00 | 0.00 | 0.00 | 65 | 1022.3 |
| 20260505060752 | 18 | 113 | 6.4 | 16.1 | 0.00 | 0.00 | 0.00 | 66 | 1022.3 |
| 20260505053732 | 19 | 266 | 6.4 | 17.7 | 0.00 | 0.00 | 0.00 | 66 | 1022.2 |
| 20260505050810 | 19 | 142 | 8.0 | 16.1 | 0.00 | 0.00 | 0.00 | 63 | 1022.1 |
| 20260505040731 | 20 | 148 | 6.4 | 14.5 | 0.00 | 0.00 | 0.00 | 65 | 1022.0 |
| 20260505033733 | 20 | 127 | 4.8 | 17.7 | 0.00 | 0.00 | 0.00 | 63 | 1021.9 |
| 20260505030733 | 20 | 257 | 1.6 | 11.3 | 0.00 | 0.00 | 0.00 | 65 | 1021.6 |
| 20260505023734 | 20 | 169 | 3.2 | 11.3 | 0.00 | 0.00 | 0.00 | 64 | 1021.5 |
| 20260505020732 | 21 | 118 | 3.2 | 9.7 | 0.00 | 0.00 | 0.00 | 60 | 1021.6 |
| 20260505013734 | 20 | 235 | 1.6 | 8.0 | 0.00 | 0.00 | 0.00 | 60 | 1021.4 |
| 20260505010735 | 20 | 144 | 4.8 | 9.7 | 0.00 | 0.00 | 0.00 | 64 | 1021.4 |
| 20260505003735 | 18 | 133 | 4.8 | 11.3 | 0.00 | 0.00 | 0.00 | 65 | 1021.2 |
| 20260505000737 | 18 | 205 | 4.8 | 9.7 | 0.00 | 0.00 | 0.00 | 60 | 1020.9 |
| 20260504233737 | 18 | 73 | 6.4 | 11.3 | 0.00 | 0.00 | 0.00 | 59 | 1020.5 |
| 20260504230800 | 18 | 63 | 3.2 | 11.3 | 0.00 | 0.00 | 0.00 | 58 | 1020.2 |
| 20260504223756 | 17 | 14 | 3.2 | 8.0 | 0.00 | 0.00 | 0.00 | 61 | 1019.8 |
| 20260504220749 | 16 | 8 | 4.8 | 6.4 | 0.00 | 0.00 | 0.00 | 65 | 1019.4 |
| 20260504213729 | 13 | 288 | 1.6 | 3.2 | 0.00 | 0.00 | 0.00 | 77 | 1018.9 |
| 20260504210731 | 12 | 302 | 1.6 | 4.8 | 0.00 | 0.00 | 0.00 | 80 | 1018.3 |
| 20260504203732 | 12 | 311 | 0.0 | 3.2 | 0.00 | 0.00 | 0.00 | 78 | 1017.7 |
| 20260504200733 | 11 | 310 | 0.0 | 4.8 | 0.00 | 0.61 | 0.00 | 77 | 1016.8 |
| 20260504193729 | 12 | 258 | 1.6 | 6.4 | 0.00 | 0.61 | 0.00 | 76 | 1016.0 |
| 20260504190731 | 12 | 278 | 3.2 | 8.0 | 0.00 | 1.70 | 0.00 | 72 | 1015.2 |
| 20260504183732 | 13 | 302 | 1.6 | 16.1 | 0.00 | 1.70 | 0.00 | 71 | 1014.3 |
| 20260504180733 | 13 | 302 | 6.4 | 17.7 | 0.00 | 1.70 | 0.00 | 70 | 1013.7 |
| 20260504173733 | 13 | 242 | 11.3 | 24.1 | 0.00 | 1.70 | 0.00 | 69 | 1013.4 |
| 20260504170734 | 13 | 278 | 11.3 | 22.5 | 0.00 | 1.80 | 0.00 | 69 | 1012.6 |
| 20260504150734 | 14 | 167 | 9.7 | 29.0 | 0.00 | 11.20 | 0.00 | 67 | 1011.0 |
| 20260504140737 | 15 | 262 | 11.3 | 30.6 | 0.00 | 15.09 | 2.24 | 68 | 1010.5 |
| 20260504130734 | 15 | 49 | 12.9 | 27.4 | 0.00 | 17.30 | 2.24 | 68 | 1010.2 |